createdAt,value
2023-03-11T00:00:47.181Z,85.71
2023-03-11T00:03:16.361Z,85.71
2023-03-11T00:05:44.809Z,86.59
2023-03-11T00:08:18.374Z,86.28
2023-03-11T00:10:47.752Z,85.65
2023-03-11T00:13:16.589Z,86.37
2023-03-11T00:15:45.983Z,86.27
2023-03-11T00:18:13.006Z,86.64
2023-03-11T00:20:43.988Z,85.56
2023-03-11T00:23:13.072Z,85.66
2023-03-11T00:25:40.747Z,86.47
2023-03-11T00:28:10.667Z,86.19
2023-03-11T00:30:39.662Z,86.27
2023-03-11T00:33:06.997Z,86.82
2023-03-11T00:35:35.219Z,86.13
2023-03-11T00:38:05.408Z,86.17
2023-03-11T00:40:33.968Z,86.82
2023-03-11T00:43:04.610Z,87.23
2023-03-11T00:45:31.937Z,86.07
2023-03-11T00:47:58.993Z,86.01
2023-03-11T00:50:31.482Z,85.89
2023-03-11T00:52:59.362Z,85.74
2023-03-11T00:55:29.160Z,85.82
2023-03-11T00:57:58.644Z,86.44
2023-03-11T01:00:27.531Z,85.21
2023-03-11T01:02:55.510Z,84.99
2023-03-11T01:05:25.962Z,85.19
2023-03-11T01:07:52.830Z,85.45
2023-03-11T01:10:20.454Z,85.47
2023-03-11T01:12:47.328Z,85.75
2023-03-11T01:15:40.427Z,84.83
2023-03-11T01:18:07.916Z,84.94
2023-03-11T01:20:36.266Z,85.16
2023-03-11T01:23:03.287Z,85.40
2023-03-11T01:25:31.923Z,85.25
2023-03-11T01:28:00.565Z,85.32
2023-03-11T01:30:29.160Z,85.17
2023-03-11T01:32:57.699Z,84.81
2023-03-11T01:35:27.091Z,85.31
2023-03-11T01:37:54.269Z,84.91
2023-03-11T01:40:37.032Z,84.59
2023-03-11T01:43:06.431Z,84.45
2023-03-11T01:45:51.383Z,85.15
2023-03-11T01:48:18.416Z,84.82
2023-03-11T01:50:51.013Z,85.18
2023-03-11T01:53:18.883Z,86.24
2023-03-11T01:55:47.060Z,86.09
2023-03-11T01:58:21.216Z,85.40
2023-03-11T02:00:48.103Z,85.53
2023-03-11T02:03:21.702Z,86.83
2023-03-11T02:05:51.446Z,86.09
2023-03-11T02:08:18.233Z,86.59
2023-03-11T02:10:46.822Z,85.80
2023-03-11T02:13:16.276Z,86.34
2023-03-11T02:15:43.264Z,86.80
2023-03-11T02:18:21.135Z,86.71
2023-03-11T02:20:57.941Z,86.47
2023-03-11T02:23:30.903Z,85.39
2023-03-11T02:26:12.371Z,86.02
2023-03-11T02:28:41.125Z,86.38
2023-03-11T02:31:08.308Z,85.92
2023-03-11T02:33:37.438Z,86.41
2023-03-11T02:36:05.311Z,86.44
2023-03-11T02:38:32.264Z,86.49
2023-03-11T02:41:01.929Z,85.79
2023-03-11T02:43:41.108Z,87.21
2023-03-11T02:46:11.481Z,86.65
2023-03-11T02:48:39.672Z,86.59
2023-03-11T02:51:06.748Z,87.42
2023-03-11T02:53:39.369Z,87.00
2023-03-11T02:56:06.654Z,86.77
2023-03-11T02:58:33.564Z,86.99
2023-03-11T03:01:00.539Z,87.08
2023-03-11T03:03:27.520Z,86.82
2023-03-11T03:05:54.327Z,87.01
2023-03-11T03:08:21.246Z,87.71
2023-03-11T03:10:49.173Z,87.21
2023-03-11T03:13:18.965Z,86.72
2023-03-11T03:15:45.912Z,86.50
2023-03-11T03:18:12.658Z,86.65
2023-03-11T03:20:39.690Z,86.83
2023-03-11T03:23:06.685Z,86.16
2023-03-11T03:25:33.817Z,86.56
2023-03-11T03:28:00.768Z,86.48
2023-03-11T03:30:29.487Z,87.09
2023-03-11T03:32:56.758Z,86.78
2023-03-11T03:35:23.617Z,86.70
2023-03-11T03:37:50.465Z,86.45
2023-03-11T03:40:17.453Z,86.53
2023-03-11T03:42:44.181Z,87.09
2023-03-11T03:45:11.269Z,87.33
2023-03-11T03:47:38.048Z,87.65
2023-03-11T03:50:07.795Z,88.05
2023-03-11T03:52:36.114Z,87.97
2023-03-11T03:55:04.655Z,87.60
2023-03-11T03:57:31.927Z,87.30
2023-03-11T03:59:59.274Z,86.95
2023-03-11T04:02:26.249Z,87.44
2023-03-11T04:04:53.177Z,86.72
2023-03-11T04:07:20.017Z,86.00
2023-03-11T04:09:46.760Z,86.00
2023-03-11T04:12:15.260Z,86.11
2023-03-11T04:14:42.540Z,86.70
2023-03-11T04:17:11.852Z,86.80
2023-03-11T04:19:38.977Z,86.92
2023-03-11T04:22:06.243Z,86.14
2023-03-11T04:24:33.201Z,86.57
2023-03-11T04:27:00.143Z,86.70
2023-03-11T04:29:27.129Z,86.40
2023-03-11T04:31:53.888Z,86.69
2023-03-11T04:34:21.296Z,86.80
2023-03-11T04:36:48.319Z,86.71
2023-03-11T04:39:16.733Z,86.67
2023-03-11T04:41:43.744Z,86.83
2023-03-11T04:44:10.659Z,86.60
2023-03-11T04:46:37.779Z,86.97
2023-03-11T04:49:04.792Z,87.33
2023-03-11T04:51:31.858Z,87.82
2023-03-11T04:53:58.664Z,87.68
2023-03-11T04:56:25.567Z,87.07
2023-03-11T04:58:52.589Z,86.83
2023-03-11T05:01:19.670Z,86.73
2023-03-11T05:03:47.684Z,86.84
2023-03-11T05:06:14.607Z,87.53
2023-03-11T05:08:41.748Z,88.03
2023-03-11T05:11:09.043Z,88.03
2023-03-11T05:13:36.234Z,87.71
2023-03-11T05:16:03.159Z,87.56
2023-03-11T05:18:31.432Z,86.87
2023-03-11T05:20:58.831Z,87.26
2023-03-11T05:23:25.788Z,86.81
2023-03-11T05:25:52.795Z,87.07
2023-03-11T05:28:19.812Z,87.19
2023-03-11T05:30:46.789Z,86.92
2023-03-11T05:33:13.835Z,87.29
2023-03-11T05:35:40.887Z,87.60
2023-03-11T05:38:08.134Z,86.42
2023-03-11T05:40:35.364Z,86.85
2023-03-11T05:43:02.280Z,87.05
2023-03-11T05:45:29.671Z,86.80
2023-03-11T05:47:56.665Z,87.39
2023-03-11T05:50:23.573Z,87.26
2023-03-11T05:52:50.816Z,86.96
2023-03-11T05:55:17.740Z,87.41
2023-03-11T05:57:44.636Z,87.48
2023-03-11T06:00:12.593Z,87.33
2023-03-11T06:02:41.134Z,87.27
2023-03-11T06:05:10.503Z,87.20
2023-03-11T06:07:40.569Z,86.85
2023-03-11T06:10:08.143Z,87.07
2023-03-11T06:12:35.809Z,87.94
2023-03-11T06:15:02.768Z,88.19
2023-03-11T06:17:30.570Z,88.11
2023-03-11T06:19:57.619Z,87.34
2023-03-11T06:22:24.700Z,87.97
2023-03-11T06:24:51.771Z,88.66
2023-03-11T06:27:18.772Z,88.16
2023-03-11T06:29:48.291Z,86.95
2023-03-11T06:32:15.699Z,87.61
2023-03-11T06:34:43.689Z,86.99
2023-03-11T06:37:12.962Z,87.14
2023-03-11T06:39:39.998Z,87.08
2023-03-11T06:42:10.665Z,87.17
2023-03-11T06:44:37.847Z,87.31
2023-03-11T06:47:04.785Z,87.50
2023-03-11T06:49:31.859Z,87.65
2023-03-11T06:51:59.951Z,88.13
2023-03-11T06:54:26.888Z,88.80
2023-03-11T06:56:53.960Z,89.82
2023-03-11T06:59:22.968Z,87.96
2023-03-11T07:01:50.126Z,87.70
2023-03-11T07:04:17.536Z,90.06
2023-03-11T07:06:45.228Z,92.91
2023-03-11T07:09:12.091Z,94.36
2023-03-11T07:11:38.994Z,88.14
2023-03-11T07:14:05.870Z,83.70
2023-03-11T07:16:32.980Z,85.10
2023-03-11T07:19:03.439Z,86.34
2023-03-11T07:21:32.405Z,87.08
2023-03-11T07:24:01.846Z,85.35
2023-03-11T07:26:30.542Z,86.31
2023-03-11T07:28:57.860Z,82.06
2023-03-11T07:31:27.433Z,70.99
2023-03-11T07:33:54.704Z,61.70
2023-03-11T07:36:27.096Z,55.14
2023-03-11T07:38:59.883Z,50.54
2023-03-11T07:41:27.793Z,47.59
2023-03-11T07:43:56.548Z,49.71
2023-03-11T07:46:24.933Z,52.92
2023-03-11T07:48:52.838Z,52.00
2023-03-11T07:51:28.922Z,57.01
2023-03-11T07:53:57.885Z,55.93
2023-03-11T07:56:26.584Z,56.31
2023-03-11T07:58:54.022Z,51.29
2023-03-11T08:01:26.255Z,48.09
2023-03-11T08:04:01.484Z,44.59
2023-03-11T08:06:31.633Z,41.86
2023-03-11T08:09:00.693Z,40.75
2023-03-11T08:11:28.547Z,39.61
2023-03-11T08:13:55.543Z,41.75
2023-03-11T08:16:22.807Z,41.19
2023-03-11T08:18:51.345Z,42.26
2023-03-11T08:21:24.288Z,39.26
2023-03-11T08:23:51.708Z,36.52
2023-03-11T08:26:21.928Z,32.65
2023-03-11T08:28:49.664Z,29.65
2023-03-11T08:31:17.985Z,30.01
2023-03-11T08:33:46.863Z,32.59
2023-03-11T08:36:14.102Z,33.33
2023-03-11T08:38:41.244Z,32.08
2023-03-11T08:41:08.367Z,30.07
2023-03-11T08:43:35.477Z,31.94
2023-03-11T08:46:04.648Z,31.43
2023-03-11T08:48:31.845Z,28.55
2023-03-11T08:50:59.131Z,25.96
2023-03-11T08:53:26.397Z,26.03
2023-03-11T08:55:53.698Z,23.19
2023-03-11T08:58:21.370Z,21.60
2023-03-11T09:00:48.351Z,20.35
2023-03-11T09:03:15.433Z,20.03
2023-03-11T09:05:42.638Z,19.07
2023-03-11T09:08:09.440Z,19.13
2023-03-11T09:10:36.309Z,18.00
2023-03-11T09:13:03.361Z,17.44
2023-03-11T09:15:30.231Z,16.41
2023-03-11T09:17:57.221Z,16.27
2023-03-11T09:20:25.559Z,15.04
2023-03-11T09:22:52.415Z,14.54
2023-03-11T09:25:19.472Z,15.89
2023-03-11T09:27:46.537Z,14.28
2023-03-11T09:30:13.935Z,14.40
2023-03-11T09:32:41.096Z,14.08
2023-03-11T09:35:08.197Z,14.08
2023-03-11T09:37:36.063Z,13.67
2023-03-11T09:40:03.573Z,13.74
2023-03-11T09:42:40.414Z,14.20
2023-03-11T09:45:25.557Z,12.38
2023-03-11T09:48:22.426Z,12.40
2023-03-11T09:51:16.578Z,13.35
2023-03-11T09:53:55.519Z,12.74
2023-03-11T09:56:23.047Z,13.22
2023-03-11T09:58:56.124Z,12.56
2023-03-11T10:01:44.984Z,12.95
2023-03-11T10:04:30.670Z,11.95
2023-03-11T10:07:01.472Z,13.05
2023-03-11T10:09:40.402Z,14.61
2023-03-11T10:12:26.111Z,13.55
2023-03-11T10:15:06.153Z,14.39
2023-03-11T10:17:43.219Z,14.17
2023-03-11T10:20:45.581Z,14.80
2023-03-11T10:23:18.958Z,13.50
2023-03-11T10:26:04.858Z,13.86
2023-03-11T10:29:00.250Z,13.40
2023-03-11T10:32:01.013Z,13.20
2023-03-11T10:34:55.157Z,12.10
2023-03-11T10:37:46.601Z,12.45
2023-03-11T10:40:26.195Z,12.05
2023-03-11T10:42:57.523Z,13.18
2023-03-11T10:45:25.787Z,13.72
2023-03-11T10:47:52.600Z,12.56
2023-03-11T10:50:20.695Z,12.49
2023-03-11T10:53:08.133Z,13.48
2023-03-11T10:55:35.894Z,13.19
2023-03-11T10:58:12.007Z,13.73
2023-03-11T11:00:38.900Z,12.67
2023-03-11T11:03:12.900Z,12.29
2023-03-11T11:05:39.784Z,13.88
2023-03-11T11:08:08.408Z,13.45
2023-03-11T11:10:37.195Z,12.80
2023-03-11T11:13:20.699Z,12.38
2023-03-11T11:16:05.621Z,12.18
2023-03-11T11:18:36.974Z,13.03
2023-03-11T11:21:08.389Z,13.88
2023-03-11T11:23:40.611Z,14.00
2023-03-11T11:26:16.727Z,12.51
2023-03-11T11:28:44.891Z,13.36
2023-03-11T11:31:25.268Z,13.17
2023-03-11T11:33:56.578Z,11.45
2023-03-11T11:36:31.608Z,14.87
2023-03-11T11:39:00.112Z,13.87
2023-03-11T11:41:39.000Z,13.93
2023-03-11T11:44:07.419Z,14.18
2023-03-11T11:46:43.592Z,15.07
2023-03-11T11:49:15.914Z,13.67
2023-03-11T11:55:29.623Z,12.88
2023-03-11T11:57:57.695Z,16.19
2023-03-11T12:00:49.522Z,15.68
2023-03-11T12:03:40.193Z,19.33
2023-03-11T12:06:19.932Z,26.92
2023-03-11T12:08:54.041Z,24.62
2023-03-11T12:11:41.859Z,18.21
2023-03-11T12:14:24.559Z,22.40
2023-03-11T12:16:59.088Z,24.22
2023-03-11T12:19:45.245Z,19.47
2023-03-11T12:22:15.140Z,21.25
2023-03-11T12:24:59.922Z,24.65
2023-03-11T12:28:09.476Z,30.97
2023-03-11T12:30:42.398Z,32.32
2023-03-11T12:33:18.912Z,29.05
2023-03-11T12:35:57.708Z,28.75
2023-03-11T12:38:41.038Z,33.32
2023-03-11T12:41:14.072Z,36.33
2023-03-11T12:43:41.358Z,36.57
2023-03-11T12:46:13.657Z,35.95
2023-03-11T12:48:50.137Z,34.39
2023-03-11T12:51:34.502Z,34.46
2023-03-11T12:54:20.175Z,35.96
2023-03-11T13:00:55.445Z,38.96
2023-03-11T13:03:38.132Z,38.96
2023-03-11T13:06:14.215Z,38.67
2023-03-11T13:08:50.963Z,40.74
2023-03-11T13:11:39.484Z,42.48
2023-03-11T13:14:09.229Z,44.54
2023-03-11T13:16:38.052Z,44.18
2023-03-11T13:19:26.795Z,44.92
2023-03-11T13:21:55.216Z,45.07
2023-03-11T13:24:22.185Z,45.42
2023-03-11T13:27:04.784Z,46.19
2023-03-11T13:29:53.948Z,46.53
2023-03-11T13:32:39.437Z,47.01
2023-03-11T13:35:44.654Z,46.61
2023-03-11T13:38:17.324Z,45.90
2023-03-11T13:40:49.868Z,47.45
2023-03-11T13:43:22.132Z,47.12
2023-03-11T13:45:55.220Z,44.68
2023-03-11T13:48:30.906Z,45.73
2023-03-11T13:51:38.613Z,47.19
2023-03-11T13:54:20.457Z,46.15
2023-03-11T13:56:52.672Z,45.40
2023-03-11T13:59:28.421Z,47.75
2023-03-11T14:02:01.779Z,46.63
2023-03-11T14:04:31.888Z,46.50
2023-03-11T14:07:00.374Z,46.46
2023-03-11T14:09:28.827Z,48.25
2023-03-11T14:12:04.847Z,50.32
2023-03-11T14:14:44.186Z,49.46
2023-03-11T14:17:16.598Z,51.15
2023-03-11T14:19:44.402Z,51.44
2023-03-11T14:22:11.492Z,51.40
2023-03-11T14:24:40.005Z,51.54
2023-03-11T14:27:10.059Z,51.72
2023-03-11T14:29:46.160Z,52.17
2023-03-11T14:32:28.434Z,51.44
2023-03-11T14:34:56.230Z,52.18
2023-03-11T14:37:27.747Z,52.73
2023-03-11T14:39:54.843Z,51.51
2023-03-11T14:42:34.999Z,51.10
2023-03-11T14:45:32.469Z,50.61
2023-03-11T14:48:23.784Z,51.21
2023-03-11T14:50:51.257Z,50.86
2023-03-11T14:53:26.707Z,51.09
2023-03-11T14:55:59.723Z,52.33
2023-03-11T14:58:32.208Z,53.02
2023-03-11T15:01:11.620Z,52.94
2023-03-11T15:03:44.849Z,54.28
2023-03-11T15:06:21.092Z,53.90
2023-03-11T15:08:52.787Z,55.16
2023-03-11T15:11:28.899Z,54.01
2023-03-11T15:14:16.393Z,54.48
2023-03-11T15:16:43.467Z,53.54
2023-03-11T15:19:28.962Z,52.86
2023-03-11T15:21:59.825Z,53.55
2023-03-11T15:24:29.856Z,54.95
2023-03-11T15:27:05.882Z,60.30
2023-03-11T15:29:34.900Z,63.88
2023-03-11T15:32:37.661Z,67.20
2023-03-11T15:35:07.665Z,69.79
2023-03-11T15:37:42.692Z,70.36
2023-03-11T15:40:35.334Z,71.41
2023-03-11T15:43:15.485Z,70.69
2023-03-11T15:45:43.940Z,69.00
2023-03-11T15:48:12.019Z,69.33
2023-03-11T15:50:54.840Z,67.35
2023-03-11T15:53:24.097Z,67.33
2023-03-11T15:55:52.785Z,68.30
2023-03-11T15:58:20.914Z,68.75
2023-03-11T16:00:56.684Z,69.35
2023-03-11T16:03:26.841Z,70.11
2023-03-11T16:06:13.590Z,70.79
2023-03-11T16:08:40.882Z,70.77
2023-03-11T16:11:12.330Z,70.98
2023-03-11T16:13:39.166Z,71.31
2023-03-11T16:16:06.519Z,72.48
2023-03-11T16:18:34.272Z,72.78
2023-03-11T16:21:05.015Z,72.49
2023-03-11T16:23:50.220Z,73.19
2023-03-11T16:26:17.832Z,73.18
2023-03-11T16:28:44.684Z,72.75
2023-03-11T16:31:12.006Z,73.67
2023-03-11T16:33:39.258Z,72.94
2023-03-11T16:36:06.518Z,73.62
2023-03-11T16:38:44.704Z,73.75
2023-03-11T16:41:11.666Z,74.28
2023-03-11T16:43:38.773Z,73.02
2023-03-11T16:46:06.095Z,74.83
2023-03-11T16:48:33.124Z,74.67
2023-03-11T16:51:01.237Z,74.98
2023-03-11T16:53:29.189Z,74.88
2023-03-11T16:55:56.507Z,74.89
2023-03-11T16:58:23.444Z,74.96
2023-03-11T17:00:50.578Z,75.26
2023-03-11T17:03:21.585Z,75.04
2023-03-11T17:05:48.937Z,75.41
2023-03-11T17:08:18.391Z,76.65
2023-03-11T17:10:49.364Z,76.22
2023-03-11T17:13:18.990Z,76.98
2023-03-11T17:15:46.860Z,78.10
2023-03-11T17:18:13.793Z,78.21
2023-03-11T17:20:43.646Z,78.47
2023-03-11T17:23:10.776Z,78.67
2023-03-11T17:25:40.801Z,77.86
2023-03-11T17:28:08.492Z,78.89
2023-03-11T17:30:37.809Z,78.79
2023-03-11T17:33:05.325Z,79.04
2023-03-11T17:35:32.507Z,78.81
2023-03-11T17:37:59.475Z,79.07
2023-03-11T17:40:27.233Z,79.67
2023-03-11T17:42:54.211Z,78.41
2023-03-11T17:45:21.349Z,78.86
2023-03-11T17:47:48.288Z,78.80
2023-03-11T17:50:15.278Z,78.43
2023-03-11T17:52:42.381Z,77.89
2023-03-11T17:55:10.330Z,78.23
2023-03-11T17:57:45.081Z,79.42
2023-03-11T18:00:15.109Z,78.92
2023-03-11T18:02:42.369Z,79.98
2023-03-11T18:05:09.575Z,80.41
2023-03-11T18:07:39.358Z,81.06
2023-03-11T18:10:07.562Z,80.54
2023-03-11T18:12:34.670Z,81.31
2023-03-11T18:15:06.260Z,81.23
2023-03-11T18:17:35.600Z,81.97
2023-03-11T18:20:05.757Z,81.77
2023-03-11T18:22:35.251Z,81.91
2023-03-11T18:25:02.480Z,82.36
2023-03-11T18:27:29.411Z,82.97
2023-03-11T18:29:56.266Z,82.58
2023-03-11T18:32:24.905Z,82.96
2023-03-11T18:34:52.000Z,82.93
2023-03-11T18:37:18.995Z,82.20
2023-03-11T18:39:45.928Z,82.27
2023-03-11T18:42:14.314Z,83.07
2023-03-11T18:44:41.994Z,82.60
2023-03-11T18:47:09.123Z,82.76
2023-03-11T18:49:36.278Z,83.73
2023-03-11T18:52:03.358Z,83.91
2023-03-11T18:54:30.254Z,84.07
2023-03-11T18:56:57.295Z,84.36
2023-03-11T18:59:24.349Z,84.23
2023-03-11T19:01:51.279Z,84.11
2023-03-11T19:04:20.717Z,84.03
2023-03-11T19:06:47.736Z,83.75
2023-03-11T19:09:14.825Z,83.86
2023-03-11T19:11:41.931Z,84.69
2023-03-11T19:14:08.925Z,84.32
2023-03-11T19:16:36.058Z,83.94
2023-03-11T19:19:10.702Z,84.31
2023-03-11T19:21:38.820Z,84.82
2023-03-11T19:24:05.949Z,85.07
2023-03-11T19:26:44.901Z,84.64
2023-03-11T19:29:13.772Z,83.89
2023-03-11T19:31:40.986Z,83.78
2023-03-11T19:34:07.806Z,83.53
2023-03-11T19:36:34.958Z,83.65
2023-03-11T19:39:02.018Z,83.23
2023-03-11T19:41:29.093Z,83.07
2023-03-11T19:43:56.103Z,81.79
2023-03-11T19:46:24.090Z,81.86
2023-03-11T19:48:51.307Z,81.80
2023-03-11T19:51:19.626Z,80.87
2023-03-11T19:53:47.385Z,80.49
2023-03-11T19:56:14.489Z,80.18
2023-03-11T19:58:42.691Z,79.59
2023-03-11T20:01:21.273Z,79.67
2023-03-11T20:03:48.268Z,79.89
2023-03-11T20:06:18.676Z,78.72
2023-03-11T20:08:45.730Z,78.88
2023-03-11T20:11:13.071Z,79.04
2023-03-11T20:13:43.449Z,78.41
2023-03-11T20:16:13.831Z,77.94
2023-03-11T20:18:40.976Z,78.75
2023-03-11T20:21:10.650Z,78.15
2023-03-11T20:23:38.202Z,77.40
2023-03-11T20:26:07.466Z,78.28
2023-03-11T20:28:34.288Z,78.73
2023-03-11T20:31:15.605Z,77.83
2023-03-11T20:33:42.982Z,78.59
2023-03-11T20:36:12.711Z,78.77
2023-03-11T20:38:40.184Z,78.44
2023-03-11T20:41:08.412Z,77.93
2023-03-11T20:43:39.791Z,79.18
2023-03-11T20:46:08.599Z,79.16
2023-03-11T20:48:36.914Z,79.70
2023-03-11T20:51:07.954Z,79.70
2023-03-11T20:53:35.115Z,80.23
2023-03-11T20:56:11.100Z,81.87
2023-03-11T20:58:38.827Z,82.15
2023-03-11T21:01:17.878Z,83.02
2023-03-11T21:03:45.457Z,83.83
2023-03-11T21:06:24.543Z,84.32
2023-03-11T21:08:54.420Z,84.34
2023-03-11T21:11:22.177Z,85.06
2023-03-11T21:13:49.725Z,84.91
2023-03-11T21:16:16.820Z,84.69
2023-03-11T21:18:47.761Z,85.66
2023-03-11T21:21:17.815Z,86.24
2023-03-11T21:23:47.873Z,85.32
2023-03-11T21:26:16.783Z,84.98
2023-03-11T21:28:47.060Z,85.61
2023-03-11T21:31:17.850Z,85.39
2023-03-11T21:33:45.113Z,84.62
2023-03-11T21:36:13.608Z,83.25
2023-03-11T21:38:41.102Z,82.39
2023-03-11T21:41:17.128Z,82.94
2023-03-11T21:43:44.829Z,82.83
2023-03-11T21:46:15.542Z,82.25
2023-03-11T21:48:43.178Z,83.11
2023-03-11T21:51:10.487Z,82.93
2023-03-11T21:53:37.477Z,82.74
2023-03-11T21:56:05.170Z,82.79
2023-03-11T21:58:33.324Z,82.69
2023-03-11T22:01:00.939Z,82.96
2023-03-11T22:03:28.411Z,82.98
2023-03-11T22:06:03.764Z,83.15
2023-03-11T22:08:31.424Z,83.11
2023-03-11T22:10:58.787Z,81.85
2023-03-11T22:13:26.467Z,81.27
2023-03-11T22:15:53.390Z,82.54
2023-03-11T22:18:20.419Z,82.58
2023-03-11T22:20:47.732Z,82.83
2023-03-11T22:23:17.041Z,84.16
2023-03-11T22:25:44.171Z,84.57
2023-03-11T22:28:13.165Z,84.78
2023-03-11T22:30:40.148Z,84.94
2023-03-11T22:33:07.891Z,84.54
2023-03-11T22:35:34.787Z,85.59
2023-03-11T22:38:01.930Z,85.14
2023-03-11T22:40:28.949Z,85.38
2023-03-11T22:42:55.871Z,85.20
2023-03-11T22:45:23.165Z,85.67
2023-03-11T22:47:50.956Z,85.41
2023-03-11T22:50:19.083Z,86.39
2023-03-11T22:52:47.143Z,86.25
2023-03-11T22:55:14.062Z,85.94
2023-03-11T22:57:40.967Z,86.12
2023-03-11T23:00:17.360Z,86.58
2023-03-11T23:02:48.603Z,86.60
2023-03-11T23:05:17.190Z,86.97
2023-03-11T23:07:44.282Z,86.62
2023-03-11T23:10:13.795Z,86.48
2023-03-11T23:12:41.296Z,87.41
2023-03-11T23:15:14.722Z,86.44
2023-03-11T23:17:41.587Z,87.37
2023-03-11T23:20:11.544Z,86.60
2023-03-11T23:22:39.760Z,86.81
2023-03-11T23:25:09.457Z,87.48
2023-03-11T23:27:36.657Z,87.38
2023-03-11T23:30:04.366Z,87.71
2023-03-11T23:32:31.096Z,87.89
2023-03-11T23:34:57.891Z,87.11
2023-03-11T23:37:24.634Z,87.01
2023-03-11T23:39:54.881Z,87.50
2023-03-11T23:42:25.807Z,86.82
2023-03-11T23:44:53.832Z,86.55
2023-03-11T23:47:21.072Z,87.17
2023-03-11T23:49:48.159Z,86.57
2023-03-11T23:52:18.298Z,86.51
2023-03-11T23:54:45.410Z,86.71
2023-03-11T23:57:12.452Z,86.23
2023-03-11T23:59:39.307Z,86.42
